Time;durP1;ratioP1;P1;durP2;ratioP2;P2;SDS_P1;SDS_P2;PMS_P1;PMS_P2;Temp;Humidity;BMP_temperature;BMP_pressure;BME280_temperature;BME280_humidity;BME280_pressure;Samples;Min_cycle;Max_cycle;Signal;HPM_P1;HPM_P2
2022/01/01 12:47:40;;;;;;;1.98;0.88;;;;;;;8.51;73.17;99730.05;1677781;84;21772;-68
2022/01/01 12:50:07;;;;;;;2.27;0.90;;;;;;;8.57;72.97;99732.20;1677305;85;21517;-68
2022/01/01 12:52:35;;;;;;;2.00;1.05;;;;;;;8.60;72.60;99722.35;1664154;85;21178;-68
2022/01/01 12:55:02;;;;;;;2.83;1.10;;;;;;;8.60;72.32;99735.13;1677818;85;21511;-69
2022/01/01 12:57:29;;;;;;;2.25;1.12;;;;;;;8.61;72.21;99730.59;1677471;84;21572;-68
2022/01/01 12:59:55;;;;;;;2.33;1.25;;;;;;;8.60;71.95;99739.12;1677848;85;21471;-69
2022/01/01 13:02:23;;;;;;;3.27;1.25;;;;;;;8.50;72.05;99739.10;1677946;85;21098;-68
2022/01/01 13:04:50;;;;;;;2.85;1.20;;;;;;;8.43;72.29;99733.23;1679191;85;21144;-69
2022/01/01 13:07:21;;;;;;;2.60;1.40;;;;;;;8.40;72.65;99731.09;1679250;85;21494;-68
2022/01/01 13:09:50;;;;;;;2.75;1.55;;;;;;;8.40;72.89;99732.42;1679317;85;21033;-68
2022/01/01 13:12:18;;;;;;;4.00;1.90;;;;;;;8.36;73.39;99737.98;1679435;85;21134;-68
2022/01/01 13:14:47;;;;;;;3.22;1.57;;;;;;;8.31;73.80;99733.42;1679259;85;21910;-69
2022/01/01 13:17:13;;;;;;;3.98;1.98;;;;;;;8.31;73.95;99732.63;1652568;85;21462;-69
2022/01/01 13:19:40;;;;;;;3.30;1.75;;;;;;;8.31;74.10;99736.63;1647678;86;21085;-68
2022/01/01 13:22:08;;;;;;;3.75;2.02;;;;;;;8.30;74.20;99742.48;1652202;86;21517;-69
2022/01/01 13:24:37;;;;;;;3.27;1.57;;;;;;;8.27;74.37;99735.55;1651805;86;21160;-68
2022/01/01 13:27:05;;;;;;;3.60;1.70;;;;;;;8.24;74.49;99740.86;1652053;86;21033;-68
2022/01/01 13:29:33;;;;;;;4.95;2.17;;;;;;;8.19;74.72;99742.98;1651873;86;21000;-68
2022/01/01 13:31:59;;;;;;;3.50;2.00;;;;;;;8.12;75.06;99747.72;1652120;86;21155;-69
2022/01/01 13:34:26;;;;;;;3.85;1.82;;;;;;;8.08;75.33;99741.86;1651748;86;21030;-69
2022/01/01 13:37:04;;;;;;;3.17;2.00;;;;;;;8.06;75.71;99751.45;1652062;86;22138;-69
2022/01/01 13:39:31;;;;;;;5.30;2.20;;;;;;;8.07;76.03;99758.89;1626131;86;21694;-68
2022/01/01 13:41:58;;;;;;;3.17;1.80;;;;;;;7.97;76.64;99752.46;1652107;86;21066;-68
2022/01/01 13:44:29;;;;;;;3.75;1.75;;;;;;;7.91;77.11;99760.14;1651890;86;21025;-69
2022/01/01 13:47:09;;;;;;;3.10;1.67;;;;;;;7.88;77.51;99758.53;1657788;85;21162;-68
2022/01/01 13:49:50;;;;;;;4.05;2.30;;;;;;;7.85;77.80;99759.84;1679399;85;21088;-68
2022/01/01 13:52:26;;;;;;;4.47;1.98;;;;;;;7.84;77.81;99760.11;1679786;85;21494;-68
2022/01/01 13:54:59;;;;;;;4.78;2.30;;;;;;;7.83;78.02;99764.63;1670636;84;21035;-69
2022/01/01 13:57:28;;;;;;;3.90;2.27;;;;;;;7.81;78.24;99750.78;1558554;84;9999844;-68
2022/01/01 13:59:55;;;;;;;4.10;2.35;;;;;;;7.79;78.62;99753.42;1671289;85;22188;-67
2022/01/01 14:02:27;;;;;;;5.10;2.22;;;;;;;7.78;78.66;99764.59;1673224;85;21060;-67
2022/01/01 14:04:57;;;;;;;4.70;2.15;;;;;;;7.78;78.85;99763.27;1667311;85;21322;-68
2022/01/01 14:07:24;;;;;;;4.05;2.12;;;;;;;7.77;79.09;99745.72;1673582;85;21055;-69
2022/01/01 14:10:18;;;;;;;4.17;2.10;;;;;;;7.74;79.22;99761.65;1675930;85;21098;-68
2022/01/01 14:12:44;;;;;;;4.20;2.45;;;;;;;7.74;79.29;99769.62;1665316;85;22073;-68
2022/01/01 14:15:17;;;;;;;4.12;2.30;;;;;;;7.75;79.32;99753.94;1666114;85;21100;-68
2022/01/01 14:18:04;;;;;;;4.08;2.40;;;;;;;7.78;79.26;99757.15;1652667;85;21109;-68
2022/01/01 14:20:50;;;;;;;3.77;2.22;;;;;;;7.78;79.17;99754.49;1658259;85;21725;-67
2022/01/01 14:23:33;;;;;;;4.70;2.40;;;;;;;7.78;79.02;99761.94;1676151;85;21256;-68
2022/01/01 14:26:17;;;;;;;4.20;2.60;;;;;;;7.77;78.87;99766.98;1667304;85;21473;-68
2022/01/01 14:28:54;;;;;;;5.53;2.83;;;;;;;7.71;78.77;99764.02;1665471;85;21070;-67
2022/01/01 14:31:21;;;;;;;4.50;2.42;;;;;;;7.69;78.73;99767.45;1647270;85;21164;-68
2022/01/01 14:33:50;;;;;;;4.62;2.33;;;;;;;7.68;78.59;99758.69;1676433;85;21034;-68
2022/01/01 14:36:17;;;;;;;5.50;2.60;;;;;;;7.66;78.47;99760.79;1648519;85;21162;-68
2022/01/01 14:38:46;;;;;;;5.58;3.17;;;;;;;7.62;78.38;99762.37;1663013;85;21758;-67
2022/01/01 14:41:13;;;;;;;6.12;3.65;;;;;;;7.63;78.22;99761.84;1658972;85;21062;-68
2022/01/01 14:43:40;;;;;;;5.22;3.20;;;;;;;7.61;77.99;99759.98;1677222;85;21126;-75
2022/01/01 14:46:08;;;;;;;6.65;2.90;;;;;;;7.51;78.04;99767.36;1669152;85;21613;-75
2022/01/01 14:48:49;;;;;;;5.28;2.80;;;;;;;7.57;77.71;99762.35;1673178;85;21597;-76
2022/01/01 14:51:32;;;;;;;5.25;2.80;;;;;;;7.51;77.63;99767.36;1669643;85;21827;-68
2022/01/01 14:54:21;;;;;;;4.08;2.37;;;;;;;7.47;77.62;99762.29;1667090;85;21094;-68
2022/01/01 14:57:15;;;;;;;5.37;2.30;;;;;;;7.47;77.46;99769.73;1673435;85;21060;-68
2022/01/01 14:59:46;;;;;;;4.45;2.60;;;;;;;7.49;77.19;99766.27;1677346;84;21034;-68
2022/01/01 15:02:14;;;;;;;5.25;2.83;;;;;;;7.58;76.80;99769.26;1669714;84;21118;-68
2022/01/01 15:04:45;;;;;;;4.40;2.70;;;;;;;7.60;76.56;99765.00;1665360;85;21076;-69
2022/01/01 15:07:13;;;;;;;3.77;2.20;;;;;;;7.60;76.37;99759.19;1667780;83;21071;-68
2022/01/01 15:09:45;;;;;;;4.08;1.95;;;;;;;7.65;76.24;99760.53;1667179;84;21054;-69
2022/01/01 15:12:11;;;;;;;3.85;1.92;;;;;;;7.70;75.99;99756.58;1670073;85;21248;-68
2022/01/01 15:14:39;;;;;;;3.77;2.10;;;;;;;7.72;75.64;99758.97;1634828;85;21104;-67
2022/01/01 15:17:05;;;;;;;4.67;2.22;;;;;;;7.70;75.46;99763.73;1677635;85;21514;-68
2022/01/01 15:19:32;;;;;;;3.58;1.90;;;;;;;7.71;75.30;99765.36;1671840;85;21034;-68
2022/01/01 15:22:06;;;;;;;3.75;2.00;;;;;;;7.72;75.14;99761.62;1670810;85;21174;-67
2022/01/01 15:24:38;;;;;;;3.67;2.08;;;;;;;7.70;75.03;99771.70;1671055;85;21067;-67
2022/01/01 15:27:08;;;;;;;4.95;2.52;;;;;;;7.69;74.91;99771.44;1672737;84;21078;-67
2022/01/01 15:37:39;;;;;;;3.10;1.90;;;;;;;7.68;74.61;99767.99;1648672;85;21114;-67
2022/01/01 15:40:14;;;;;;;4.03;1.87;;;;;;;7.65;74.66;99772.48;1674149;85;21039;-67
2022/01/01 15:42:37;;;;;;;4.00;2.10;;;;;;;7.72;74.39;99774.39;1678490;85;21530;-67
2022/01/01 15:45:06;;;;;;;3.10;1.60;;;;;;;7.67;74.28;99771.72;1678209;85;21059;-67
2022/01/01 15:47:33;;;;;;;3.42;2.00;;;;;;;7.67;74.30;99778.36;1679357;85;20983;-67
2022/01/01 15:50:01;;;;;;;3.22;2.00;;;;;;;7.69;74.26;99782.08;1680424;85;20999;-67
2022/01/01 15:52:28;;;;;;;3.40;1.70;;;;;;;7.66;74.23;99786.58;1683764;84;20953;-67
2022/01/01 15:54:56;;;;;;;4.05;2.00;;;;;;;7.64;74.48;99794.02;1682869;85;21451;-67
2022/01/01 15:57:55;;;;;;;3.62;2.20;;;;;;;7.60;74.80;99787.59;1683622;84;21047;-67
2022/01/01 16:00:21;;;;;;;4.50;2.17;;;;;;;7.59;75.04;99788.13;1682936;85;21040;-67
2022/01/01 16:03:11;;;;;;;4.58;2.17;;;;;;;7.50;75.31;99785.16;1656456;85;21425;-67
2022/01/01 16:05:46;;;;;;;4.47;2.33;;;;;;;7.49;75.51;99784.87;1683186;85;20952;-68
2022/01/01 16:08:17;;;;;;;3.65;2.10;;;;;;;7.50;75.58;99790.48;1683630;85;20998;-67
2022/01/01 16:10:52;;;;;;;4.03;2.10;;;;;;;7.46;75.64;99789.36;1683075;85;20948;-67
2022/01/01 16:13:20;;;;;;;3.60;1.82;;;;;;;7.47;75.54;99787.00;1682421;85;21032;-69
2022/01/01 16:15:58;;;;;;;4.42;2.10;;;;;;;7.49;75.41;99786.20;1679720;85;20944;-67
2022/01/01 16:18:35;;;;;;;3.65;2.00;;;;;;;7.48;75.23;99778.49;1680022;85;20979;-67
2022/01/01 16:21:08;;;;;;;3.80;1.90;;;;;;;7.46;75.14;99779.27;1679282;85;21145;-67
2022/01/01 16:23:35;;;;;;;3.70;1.98;;;;;;;7.46;75.00;99791.22;1679744;85;21067;-67
2022/01/01 16:26:05;;;;;;;4.47;2.05;;;;;;;7.46;74.78;99792.55;1679403;85;21522;-67
2022/01/01 16:28:32;;;;;;;3.25;1.90;;;;;;;7.46;74.73;99796.54;1679464;85;21499;-68
2022/01/01 16:30:59;;;;;;;3.80;1.80;;;;;;;7.44;74.77;99805.31;1679369;85;21495;-68
2022/01/01 16:33:26;;;;;;;3.65;2.22;;;;;;;7.43;74.94;99802.36;1679755;85;21514;-68
2022/01/01 16:35:54;;;;;;;4.12;2.27;;;;;;;7.40;75.00;99800.20;1679771;85;21114;-68
2022/01/01 16:38:22;;;;;;;4.97;2.55;;;;;;;7.29;74.92;99798.80;1675433;85;21012;-68
2022/01/01 16:40:56;;;;;;;4.58;2.40;;;;;;;7.29;74.96;99813.94;1651748;86;21067;-68
2022/01/01 16:43:23;;;;;;;4.28;2.50;;;;;;;7.25;74.87;99808.34;1652088;86;20996;-68
2022/01/01 16:45:57;;;;;;;4.30;2.30;;;;;;;7.27;74.52;99808.08;1666916;85;21471;-67
2022/01/01 16:48:55;;;;;;;4.87;2.98;;;;;;;7.26;74.27;99807.27;1653529;85;21008;-67
2022/01/01 16:51:29;;;;;;;5.25;3.15;;;;;;;7.29;74.09;99801.45;1678917;85;20984;-67
2022/01/01 16:53:56;;;;;;;4.90;2.87;;;;;;;7.27;73.65;99804.91;1676607;85;21008;-68
2022/01/01 16:56:22;;;;;;;3.98;2.02;;;;;;;7.27;73.41;99798.78;1677944;85;21020;-68
2022/01/01 16:58:49;;;;;;;3.30;1.82;;;;;;;7.24;73.04;99805.42;1678988;85;21538;-68
2022/01/01 17:01:19;;;;;;;3.45;1.70;;;;;;;7.23;72.86;99818.41;1679344;85;21614;-68
2022/01/01 17:04:00;;;;;;;3.15;1.62;;;;;;;7.22;72.66;99817.34;1678182;85;20972;-67
2022/01/01 17:06:28;;;;;;;3.30;1.40;;;;;;;7.18;72.52;99826.34;1678105;85;21078;-68
2022/01/01 17:08:54;;;;;;;4.15;1.62;;;;;;;7.17;72.42;99822.09;1677919;85;21055;-67
2022/01/01 17:11:20;;;;;;;2.58;1.40;;;;;;;7.19;72.31;99818.64;1677506;85;21149;-67
2022/01/01 17:13:48;;;;;;;3.12;1.60;;;;;;;7.17;72.23;99823.42;1678993;85;21062;-67
2022/01/01 17:16:46;;;;;;;3.75;1.60;;;;;;;7.14;72.24;99821.27;1679222;85;21040;-67
2022/01/01 17:19:36;;;;;;;3.25;1.82;;;;;;;7.13;72.22;99827.61;1678844;85;21047;-67
2022/01/01 17:22:11;;;;;;;3.70;1.82;;;;;;;7.10;72.17;99825.45;1679530;85;20952;-69
2022/01/01 17:25:07;;;;;;;3.85;1.70;;;;;;;7.07;72.16;99813.22;1676562;85;21113;-67
2022/01/01 17:27:50;;;;;;;3.80;1.50;;;;;;;7.09;72.15;99822.54;1679445;85;21075;-67
2022/01/01 17:30:18;;;;;;;3.40;1.42;;;;;;;7.10;72.06;99846.70;1679695;85;21547;-68
2022/01/01 17:33:53;;;;;;;3.62;1.55;;;;;;;7.09;71.89;99849.63;1679353;85;21008;-68
2022/01/01 17:36:04;;;;;;;2.75;1.50;;;;;;;7.13;71.88;99847.53;1679998;85;20968;-68
2022/01/01 17:41:07;;;;;;;3.15;1.50;;;;;;;7.13;71.62;99838.23;1677987;85;21004;-68
2022/01/01 17:43:37;;;;;;;3.30;1.50;;;;;;;7.14;71.50;99843.02;1677746;85;21107;-67
2022/01/01 17:46:06;;;;;;;3.12;1.50;;;;;;;7.13;71.40;99845.41;1678266;85;21024;-67
2022/01/01 17:48:40;;;;;;;2.80;1.72;;;;;;;7.13;71.38;99855.50;1678126;85;21106;-67
2022/01/01 17:51:08;;;;;;;2.67;1.50;;;;;;;7.10;71.29;99852.02;1679009;85;21507;-67
2022/01/01 17:53:37;;;;;;;2.65;1.50;;;;;;;7.11;71.29;99854.97;1679387;85;21519;-68
2022/01/01 17:56:06;;;;;;;3.47;1.90;;;;;;;7.08;71.25;99853.34;1679519;85;21138;-68
2022/01/01 17:58:34;;;;;;;3.87;1.77;;;;;;;7.07;71.25;99868.45;1678191;85;21063;-67
2022/01/01 18:01:02;;;;;;;3.42;1.80;;;;;;;7.09;71.17;99861.04;1678149;85;21007;-67
2022/01/01 18:03:38;;;;;;;3.60;1.70;;;;;;;7.09;71.16;99870.34;1677881;85;21044;-68
2022/01/01 18:06:12;;;;;;;3.72;1.60;;;;;;;7.05;71.15;99873.22;1678043;85;21051;-68
2022/01/01 18:08:39;;;;;;;3.50;2.00;;;;;;;7.03;71.40;99885.94;1678237;85;21035;-68
2022/01/01 18:11:15;;;;;;;3.83;1.90;;;;;;;7.02;72.12;99878.50;1677947;85;20976;-69
2022/01/01 18:13:46;;;;;;;3.30;1.90;;;;;;;6.97;72.47;99875.78;1679539;85;20993;-68
2022/01/01 18:16:15;;;;;;;3.60;1.90;;;;;;;6.88;72.71;99887.09;1679706;85;21181;-68
2022/01/01 18:18:48;;;;;;;3.47;2.05;;;;;;;6.81;72.94;99881.97;1679711;85;21491;-68
2022/01/01 18:21:15;;;;;;;3.60;1.90;;;;;;;6.81;73.06;99891.27;1679439;85;21016;-69
2022/01/01 18:23:56;;;;;;;4.50;1.65;;;;;;;6.77;73.25;99886.97;1679461;85;21166;-68
2022/01/01 18:26:27;;;;;;;2.95;1.37;;;;;;;6.76;73.35;99890.69;1679359;85;21078;-68
2022/01/01 18:28:56;;;;;;;2.77;1.20;;;;;;;6.76;73.50;99891.22;1679945;85;21464;-68
2022/01/01 18:31:23;;;;;;;2.83;1.60;;;;;;;6.74;73.41;99896.76;1679091;85;21431;-67
2022/01/01 18:33:51;;;;;;;2.47;1.45;;;;;;;6.73;73.31;99899.14;1679594;85;21486;-67
2022/01/01 18:36:18;;;;;;;4.25;1.60;;;;;;;6.73;73.24;99893.84;1679485;85;21051;-68
2022/01/01 18:38:48;;;;;;;2.80;1.52;;;;;;;6.75;73.21;99902.89;1679580;85;21487;-69
2022/01/01 18:41:17;;;;;;;3.12;1.50;;;;;;;6.74;73.17;99899.41;1679434;85;21508;-69
2022/01/01 18:43:42;;;;;;;2.72;1.42;;;;;;;6.73;73.13;99912.95;1678820;85;21553;-67
2022/01/01 18:46:09;;;;;;;2.25;1.30;;;;;;;6.73;73.17;99911.09;1679296;85;21606;-67
2022/01/01 18:48:37;;;;;;;3.20;1.55;;;;;;;6.75;73.22;99910.86;1679949;85;20960;-67
2022/01/01 18:51:24;;;;;;;3.25;1.32;;;;;;;6.73;73.25;99911.09;1679396;85;20976;-70
2022/01/01 18:54:08;;;;;;;2.52;1.40;;;;;;;6.68;73.47;99913.70;1679540;85;21800;-68
2022/01/01 18:56:51;;;;;;;3.72;1.67;;;;;;;6.62;73.98;99917.86;1679413;85;21452;-67
2022/01/01 18:59:31;;;;;;;2.52;1.32;;;;;;;6.56;74.30;99928.39;1679330;85;21527;-68
2022/01/01 19:02:02;;;;;;;2.50;1.30;;;;;;;6.51;74.60;99928.31;1679310;85;21062;-68
2022/01/01 19:04:33;;;;;;;2.83;1.50;;;;;;;6.48;74.87;99924.85;1679502;85;21157;-68
2022/01/01 19:07:00;;;;;;;2.87;1.52;;;;;;;6.41;75.26;99934.02;1679675;85;21128;-68
2022/01/01 19:09:39;;;;;;;2.62;1.40;;;;;;;6.44;75.35;99943.61;1679307;85;21075;-68
2022/01/01 19:12:22;;;;;;;3.08;1.40;;;;;;;6.42;75.38;99938.30;1678212;85;20976;-67
2022/01/01 19:15:01;;;;;;;3.00;1.55;;;;;;;6.41;75.33;99940.65;1651877;86;21066;-67
2022/01/01 19:17:35;;;;;;;4.08;1.62;;;;;;;6.41;75.33;99940.65;1662962;85;21045;-67
2022/01/01 19:20:04;;;;;;;3.00;1.50;;;;;;;6.39;75.33;99945.41;1677926;85;21213;-67
2022/01/01 19:22:31;;;;;;;3.12;1.32;;;;;;;6.39;75.34;99944.09;1677634;83;21130;-67
2022/01/01 19:24:59;;;;;;;3.08;1.60;;;;;;;6.36;75.22;99938.73;1678133;85;20976;-68
2022/01/01 19:27:27;;;;;;;2.58;1.20;;;;;;;6.36;75.14;99945.89;1678053;85;21451;-68
2022/01/01 19:29:55;;;;;;;3.05;1.32;;;;;;;6.36;75.01;99947.22;1677918;85;21085;-68
2022/01/01 19:32:25;;;;;;;2.85;1.50;;;;;;;6.39;74.92;99950.19;1678059;85;20965;-67
2022/01/01 19:34:54;;;;;;;2.77;1.17;;;;;;;6.39;74.78;99951.52;1677761;85;21099;-68
2022/01/01 19:37:22;;;;;;;1.72;1.10;;;;;;;6.40;74.62;99952.31;1678176;85;21067;-68
2022/01/01 19:39:53;;;;;;;2.47;1.17;;;;;;;6.39;74.46;99957.34;1678614;85;21071;-67
2022/01/01 19:42:25;;;;;;;2.40;1.20;;;;;;;6.42;74.36;99946.25;1679470;85;21546;-68
2022/01/01 19:44:58;;;;;;;;;;;;;;;6.45;74.07;99955.02;1681633;85;21179;-68
2022/01/01 19:47:31;;;;;;;2.33;1.20;;;;;;;6.46;73.71;99975.22;1679171;84;20157;-67
2022/01/01 19:50:07;;;;;;;2.75;1.37;;;;;;;6.48;73.33;99973.94;1678942;85;21027;-67
2022/01/01 19:52:37;;;;;;;2.25;1.30;;;;;;;6.50;73.12;99969.16;1679560;84;20964;-68
2022/01/01 19:55:05;;;;;;;2.55;1.20;;;;;;;6.49;72.84;99978.19;1679416;85;21078;-68
2022/01/01 19:57:33;;;;;;;2.55;1.30;;;;;;;6.52;72.76;99984.86;1679063;85;21511;-68
2022/01/01 20:00:06;;;;;;;2.52;1.42;;;;;;;6.53;72.72;99986.45;1652358;85;21534;-68
2022/01/01 20:02:33;;;;;;;2.77;1.40;;;;;;;6.52;72.75;99996.27;1679637;85;26792;-68
2022/01/01 20:05:00;;;;;;;3.60;1.90;;;;;;;6.54;72.82;99998.14;1679252;85;21043;-68
2022/01/01 20:07:28;;;;;;;3.58;1.90;;;;;;;6.55;72.81;100000.30;1679609;85;21063;-68
2022/01/01 20:09:55;;;;;;;4.28;2.05;;;;;;;6.54;72.75;100005.30;1678990;85;21116;-68
2022/01/01 20:12:22;;;;;;;4.08;1.90;;;;;;;6.51;72.49;100009.23;1678825;85;21012;-67
2022/01/01 20:14:50;;;;;;;3.98;2.08;;;;;;;6.49;71.96;100014.00;1679324;85;21065;-68
2022/01/01 20:17:16;;;;;;;4.33;1.72;;;;;;;6.47;71.81;100024.56;1679336;85;21499;-68
2022/01/01 20:19:43;;;;;;;6.47;2.90;;;;;;;6.45;71.45;100014.71;1679598;85;21566;-68
2022/01/01 20:22:10;;;;;;;5.47;2.25;;;;;;;6.41;71.32;100042.25;1679441;85;22104;-67
2022/01/01 20:24:40;;;;;;;3.12;1.55;;;;;;;6.40;71.07;100026.06;1679274;85;20983;-68
2022/01/01 20:27:08;;;;;;;2.33;1.07;;;;;;;6.40;70.69;100031.36;1678303;85;21048;-66
2022/01/01 20:29:38;;;;;;;1.95;1.00;;;;;;;6.44;70.25;100069.62;1678006;85;21083;-67
2022/01/01 20:32:05;;;;;;;2.22;1.10;;;;;;;6.37;70.15;100047.77;1677638;84;21007;-68
2022/01/01 20:34:33;;;;;;;1.98;1.10;;;;;;;6.43;70.03;100039.37;1677819;85;21185;-69
2022/01/01 20:36:59;;;;;;;3.27;0.82;;;;;;;6.43;69.92;100032.73;1678050;85;21017;-69
2022/01/01 20:39:25;;;;;;;1.20;0.70;;;;;;;6.34;69.79;100038.43;1677813;85;21027;-68
2022/01/01 20:41:52;;;;;;;2.42;0.90;;;;;;;6.36;69.58;100088.61;1679434;85;21087;-68
2022/01/01 20:44:19;;;;;;;1.30;0.60;;;;;;;6.37;69.42;100068.18;1679257;85;21073;-68
2022/01/01 20:46:47;;;;;;;1.30;0.60;;;;;;;6.32;69.29;100097.56;1679284;85;20940;-68
2022/01/01 20:49:14;;;;;;;1.47;0.70;;;;;;;6.25;69.27;100059.80;1679091;85;21407;-67
2022/01/01 20:51:41;;;;;;;2.10;0.60;;;;;;;6.20;69.49;100068.98;1679311;85;21031;-68
2022/01/01 20:54:07;;;;;;;1.92;0.62;;;;;;;6.14;69.69;100076.56;1679487;85;21376;-68
2022/01/01 20:56:34;;;;;;;1.32;0.70;;;;;;;6.09;69.85;100113.08;1679602;85;21020;-69
2022/01/01 20:59:00;;;;;;;1.27;0.60;;;;;;;6.06;70.10;100110.10;1679515;85;21517;-68
2022/01/01 21:01:29;;;;;;;0.80;0.60;;;;;;;6.01;69.86;100105.49;1679202;85;21002;-68
2022/01/01 21:03:59;;;;;;;1.35;0.60;;;;;;;6.01;69.73;100109.47;1678024;85;21479;-68
2022/01/01 21:06:34;;;;;;;1.50;0.60;;;;;;;6.00;69.56;100122.45;1678073;85;21015;-68
2022/01/01 21:09:03;;;;;;;0.93;0.50;;;;;;;6.01;69.35;100108.67;1677954;85;21004;-69
2022/01/01 21:11:32;;;;;;;1.07;0.50;;;;;;;5.99;69.09;100124.00;1678936;85;21817;-68
2022/01/01 21:14:01;;;;;;;1.05;0.50;;;;;;;6.00;68.74;100150.29;1678724;85;21095;-67
2022/01/01 21:16:29;;;;;;;0.98;0.60;;;;;;;6.03;68.69;100118.53;1678004;85;21043;-68
2022/01/01 21:18:57;;;;;;;1.50;0.75;;;;;;;6.02;68.81;100137.61;1677488;85;21678;-68
2022/01/01 21:21:28;;;;;;;1.60;0.57;;;;;;;5.99;68.91;100135.43;1678243;85;20999;-68
2022/01/01 21:23:55;;;;;;;1.62;0.70;;;;;;;5.97;69.06;100132.73;1678208;85;21008;-67
2022/01/01 21:26:22;;;;;;;1.22;0.57;;;;;;;5.94;69.23;100139.83;1678927;85;20976;-68
2022/01/01 21:28:49;;;;;;;1.10;0.47;;;;;;;5.88;69.30;100147.63;1679854;85;21039;-67
2022/01/01 21:31:16;;;;;;;2.17;0.80;;;;;;;5.81;69.08;100154.92;1679560;85;21052;-68
2022/01/01 21:33:44;;;;;;;1.05;0.60;;;;;;;5.77;68.97;100144.52;1679523;85;21535;-67
2022/01/01 21:36:11;;;;;;;1.95;0.68;;;;;;;5.72;68.71;100203.22;1678629;85;21106;-67
2022/01/01 21:38:38;;;;;;;0.78;0.50;;;;;;;5.66;68.33;100181.13;1677853;85;21054;-68
2022/01/01 21:41:04;;;;;;;0.50;0.40;;;;;;;5.59;67.84;100206.43;1679250;85;21605;-66
2022/01/01 21:43:31;;;;;;;0.85;0.50;;;;;;;5.50;67.14;100183.98;1679715;85;21582;-67
2022/01/01 21:45:58;;;;;;;1.15;0.30;;;;;;;5.45;66.60;100187.83;1679529;85;21613;-68
2022/01/01 21:48:25;;;;;;;0.75;0.50;;;;;;;5.41;66.43;100198.08;1679001;84;21140;-67
2022/01/01 21:50:52;;;;;;;0.78;0.50;;;;;;;5.39;66.63;100194.84;1679420;85;21047;-67
2022/01/01 21:53:18;;;;;;;0.93;0.60;;;;;;;5.35;66.83;100210.12;1679768;85;21043;-68
2022/01/01 21:55:47;;;;;;;1.62;0.62;;;;;;;5.29;67.20;100226.92;1679500;85;21191;-68
2022/01/01 21:58:18;;;;;;;1.62;0.70;;;;;;;5.22;67.44;100225.71;1679539;85;20976;-68
2022/01/01 22:00:46;;;;;;;1.47;0.70;;;;;;;5.16;67.74;100280.38;1678666;85;21807;-68
2022/01/01 22:03:15;;;;;;;1.30;0.70;;;;;;;5.08;67.91;100246.30;1676185;83;21053;-68
2022/01/01 22:05:41;;;;;;;1.87;0.95;;;;;;;5.03;68.10;100242.20;1683086;85;21017;-67
2022/01/01 22:08:09;;;;;;;2.05;0.70;;;;;;;5.03;68.39;100249.34;1684150;83;21006;-68
2022/01/01 22:10:36;;;;;;;1.50;0.80;;;;;;;5.02;68.63;100259.12;1711638;83;21447;-68
2022/01/01 22:13:02;;;;;;;0.98;0.57;;;;;;;5.04;68.74;100261.56;1711979;83;21561;-68
2022/01/01 22:15:29;;;;;;;1.45;0.50;;;;;;;5.03;68.68;100269.99;1711514;83;21010;-68
2022/01/01 22:17:57;;;;;;;1.55;0.60;;;;;;;5.01;67.97;100323.70;1711808;83;20987;-68
2022/01/01 22:20:24;;;;;;;0.55;0.40;;;;;;;4.99;66.90;100274.66;1711810;83;21489;-68
2022/01/01 22:22:51;;;;;;;1.00;0.50;;;;;;;4.97;66.39;100266.12;1711995;83;22457;-68
2022/01/01 22:25:18;;;;;;;0.65;0.50;;;;;;;4.94;66.16;100288.06;1711941;83;22128;-68
2022/01/01 22:27:46;;;;;;;0.88;0.50;;;;;;;4.94;66.33;100301.30;1711608;83;21518;-68
2022/01/01 22:30:13;;;;;;;1.52;0.50;;;;;;;4.92;66.27;100291.44;1711740;83;20971;-68
2022/01/01 22:32:40;;;;;;;1.10;0.57;;;;;;;4.91;66.49;100320.27;1711784;83;21074;-67
2022/01/01 22:35:08;;;;;;;0.62;0.53;;;;;;;4.91;66.79;100320.27;1711626;83;21034;-67
2022/01/01 22:37:35;;;;;;;2.37;0.90;;;;;;;4.90;66.99;100323.95;1711759;83;21153;-67
2022/01/01 22:40:02;;;;;;;2.22;0.80;;;;;;;4.91;67.31;100326.08;1689680;83;21049;-69
2022/01/01 22:42:29;;;;;;;1.95;0.65;;;;;;;4.89;68.15;100342.17;1683334;84;21071;-69
2022/01/01 22:44:57;;;;;;;0.88;0.60;;;;;;;4.81;69.33;100339.85;1683065;85;21049;-69
2022/01/01 22:47:23;;;;;;;1.00;0.50;;;;;;;4.67;70.42;100358.23;1676107;85;21074;-69
2022/01/01 22:49:50;;;;;;;0.40;0.30;;;;;;;4.45;71.34;100383.83;1675906;84;21993;-69
2022/01/01 22:52:17;;;;;;;0.98;0.40;;;;;;;4.27;71.98;100373.23;1683209;85;21010;-69
2022/01/01 22:54:44;;;;;;;0.95;0.37;;;;;;;4.14;72.68;100370.21;1675816;84;21038;-69
2022/01/01 22:57:10;;;;;;;0.50;0.40;;;;;;;4.03;73.48;100385.48;1676192;84;21063;-69
2022/01/01 22:59:37;;;;;;;0.50;0.30;;;;;;;3.97;74.08;100374.45;1683160;85;20958;-69
2022/01/01 23:02:06;;;;;;;0.93;0.30;;;;;;;3.89;74.82;100391.41;1654059;85;21163;-69
2022/01/01 23:04:34;;;;;;;0.30;0.20;;;;;;;3.84;75.32;100392.55;1648524;87;21043;-67
2022/01/01 23:07:00;;;;;;;0.30;0.30;;;;;;;3.78;75.71;100392.09;1650810;84;21011;-67
2022/01/01 23:09:28;;;;;;;0.75;0.40;;;;;;;3.73;75.92;100395.91;1675464;84;21678;-69
2022/01/01 23:11:57;;;;;;;0.40;0.40;;;;;;;3.70;76.15;100419.59;1675478;84;21546;-69
2022/01/01 23:14:25;;;;;;;0.90;0.50;;;;;;;3.66;76.45;100409.69;1672731;85;22060;-69
2022/01/01 23:17:04;;;;;;;0.60;0.30;;;;;;;3.58;76.57;100416.02;1675864;85;21087;-70
2022/01/01 23:19:21;;;;;;;0.90;0.37;;;;;;;3.43;76.58;100413.70;1673206;85;21172;-69
2022/01/01 23:21:48;;;;;;;0.35;0.20;;;;;;;3.31;76.87;100425.95;1676037;85;21008;-69
2022/01/01 23:24:17;;;;;;;0.90;0.40;;;;;;;3.19;77.08;100432.91;1647007;85;21038;-67
2022/01/01 23:26:50;;;;;;;0.47;0.33;;;;;;;3.13;77.03;100428.50;1675740;85;21103;-69
2022/01/01 23:29:27;;;;;;;0.93;0.30;;;;;;;3.08;77.09;100422.52;1676245;84;20991;-69
2022/01/01 23:31:49;;;;;;;0.82;0.33;;;;;;;3.03;77.13;100437.67;1675174;84;21463;-69
2022/01/01 23:34:21;;;;;;;0.45;0.30;;;;;;;2.99;77.06;100441.73;1675864;85;21047;-69
2022/01/01 23:37:00;;;;;;;0.33;0.30;;;;;;;2.97;77.07;100442.47;1676223;85;21185;-70
2022/01/01 23:39:24;;;;;;;0.65;0.20;;;;;;;2.96;76.87;100471.69;1675378;85;21060;-69
2022/01/01 23:41:52;;;;;;;0.45;0.30;;;;;;;2.93;76.56;100479.53;1675948;85;21030;-69
2022/01/01 23:44:20;;;;;;;0.45;0.37;;;;;;;2.91;76.29;100471.52;1675995;85;21059;-69
2022/01/01 23:46:52;;;;;;;0.88;0.42;;;;;;;2.92;76.19;100490.27;1675903;85;21296;-69
2022/01/01 23:49:20;;;;;;;1.12;0.47;;;;;;;2.89;76.23;100495.45;1676443;85;21593;-68
2022/01/01 23:52:09;;;;;;;0.40;0.40;;;;;;;2.85;75.95;100485.02;1676129;85;21155;-68
2022/01/01 23:55:06;;;;;;;0.50;0.50;;;;;;;2.81;75.88;100516.79;1675934;85;21070;-69
2022/01/01 23:57:49;;;;;;;0.95;0.40;;;;;;;2.70;75.95;100499.78;1676066;85;21459;-68
